sensor_id;sensor_type;location;lat;lon;timestamp;temperature;humidity
48575;DHT22;34352;51.084;3.712;2023-06-05T07:12:19;21.20;99.90
48575;DHT22;34352;51.084;3.712;2023-06-05T07:14:48;22.00;99.90
48575;DHT22;34352;51.084;3.712;2023-06-05T07:17:13;22.50;99.90
48575;DHT22;34352;51.084;3.712;2023-06-05T07:19:39;22.40;99.90
48575;DHT22;34352;51.084;3.712;2023-06-05T07:22:05;23.30;99.90
48575;DHT22;34352;51.084;3.712;2023-06-05T07:24:33;23.40;99.90
48575;DHT22;34352;51.084;3.712;2023-06-05T07:27:04;24.10;99.90
48575;DHT22;34352;51.084;3.712;2023-06-05T07:29:30;25.00;99.90
48575;DHT22;34352;51.084;3.712;2023-06-05T07:31:57;25.00;99.90
48575;DHT22;34352;51.084;3.712;2023-06-05T07:34:25;25.20;99.90
48575;DHT22;34352;51.084;3.712;2023-06-05T07:36:51;25.10;99.90
48575;DHT22;34352;51.084;3.712;2023-06-05T07:39:22;24.20;99.90
48575;DHT22;34352;51.084;3.712;2023-06-05T07:41:48;24.80;99.90
48575;DHT22;34352;51.084;3.712;2023-06-05T07:44:20;24.60;99.90
48575;DHT22;34352;51.084;3.712;2023-06-05T07:46:49;24.70;99.90
48575;DHT22;34352;51.084;3.712;2023-06-05T07:49:15;24.60;99.90
48575;DHT22;34352;51.084;3.712;2023-06-05T07:51:45;23.60;99.90
48575;DHT22;34352;51.084;3.712;2023-06-05T07:54:13;24.20;99.90
48575;DHT22;34352;51.084;3.712;2023-06-05T07:56:39;25.30;99.90
48575;DHT22;34352;51.084;3.712;2023-06-05T07:59:06;24.90;99.90
48575;DHT22;34352;51.084;3.712;2023-06-05T08:01:33;24.10;99.90
48575;DHT22;34352;51.084;3.712;2023-06-05T08:04:04;23.50;99.90
48575;DHT22;34352;51.084;3.712;2023-06-05T08:06:30;24.40;99.90
48575;DHT22;34352;51.084;3.712;2023-06-05T08:09:01;24.10;99.90
48575;DHT22;34352;51.084;3.712;2023-06-05T08:11:27;25.80;99.90
48575;DHT22;34352;51.084;3.712;2023-06-05T08:13:54;26.80;99.90
48575;DHT22;34352;51.084;3.712;2023-06-05T08:16:20;27.90;99.90
48575;DHT22;34352;51.084;3.712;2023-06-05T08:18:48;28.10;99.90
48575;DHT22;34352;51.084;3.712;2023-06-05T08:21:14;28.00;99.90
48575;DHT22;34352;51.084;3.712;2023-06-05T08:23:39;27.60;99.90
48575;DHT22;34352;51.084;3.712;2023-06-05T08:26:05;28.60;99.90
48575;DHT22;34352;51.084;3.712;2023-06-05T08:28:41;28.80;99.90
48575;DHT22;34352;51.084;3.712;2023-06-05T08:31:08;28.10;1.00
48575;DHT22;34352;51.084;3.712;2023-06-05T08:33:35;28.20;1.00
48575;DHT22;34352;51.084;3.712;2023-06-05T08:36:01;28.50;1.00
48575;DHT22;34352;51.084;3.712;2023-06-05T08:38:29;28.90;1.00
48575;DHT22;34352;51.084;3.712;2023-06-05T08:41:05;29.30;1.00
48575;DHT22;34352;51.084;3.712;2023-06-05T08:43:37;29.60;1.00
48575;DHT22;34352;51.084;3.712;2023-06-05T08:46:05;29.90;1.00
48575;DHT22;34352;51.084;3.712;2023-06-05T08:48:42;29.00;1.00
48575;DHT22;34352;51.084;3.712;2023-06-05T08:51:15;28.20;1.00
48575;DHT22;34352;51.084;3.712;2023-06-05T08:53:44;28.60;1.00
48575;DHT22;34352;51.084;3.712;2023-06-05T08:56:12;28.20;1.00
48575;DHT22;34352;51.084;3.712;2023-06-05T08:58:41;28.60;1.00
48575;DHT22;34352;51.084;3.712;2023-06-05T09:01:10;28.80;1.00
48575;DHT22;34352;51.084;3.712;2023-06-05T09:03:35;29.50;1.00
48575;DHT22;34352;51.084;3.712;2023-06-05T09:06:01;29.00;1.00
48575;DHT22;34352;51.084;3.712;2023-06-05T09:08:32;28.10;1.00
48575;DHT22;34352;51.084;3.712;2023-06-05T09:11:24;29.00;1.00
48575;DHT22;34352;51.084;3.712;2023-06-05T09:13:51;28.60;1.00
48575;DHT22;34352;51.084;3.712;2023-06-05T09:16:22;29.40;1.00
48575;DHT22;34352;51.084;3.712;2023-06-05T09:18:55;30.50;1.00
48575;DHT22;34352;51.084;3.712;2023-06-05T09:21:22;31.10;1.00
48575;DHT22;34352;51.084;3.712;2023-06-05T09:29:30;29.10;1.00
48575;DHT22;34352;51.084;3.712;2023-06-05T09:32:00;30.50;1.00
48575;DHT22;34352;51.084;3.712;2023-06-05T09:34:31;30.40;1.00
48575;DHT22;34352;51.084;3.712;2023-06-05T09:36:59;31.10;1.00
48575;DHT22;34352;51.084;3.712;2023-06-05T09:39:27;31.90;1.00
48575;DHT22;34352;51.084;3.712;2023-06-05T09:41:55;31.50;1.00
48575;DHT22;34352;51.084;3.712;2023-06-05T09:44:21;30.70;1.00
48575;DHT22;34352;51.084;3.712;2023-06-05T09:49:18;30.40;1.00
48575;DHT22;34352;51.084;3.712;2023-06-05T09:51:45;30.40;1.00
48575;DHT22;34352;51.084;3.712;2023-06-05T09:54:12;31.60;1.00
48575;DHT22;34352;51.084;3.712;2023-06-05T09:56:46;31.90;1.00
48575;DHT22;34352;51.084;3.712;2023-06-05T09:59:20;30.20;1.00
48575;DHT22;34352;51.084;3.712;2023-06-05T10:01:51;30.20;1.00
48575;DHT22;34352;51.084;3.712;2023-06-05T10:04:23;31.30;1.00
48575;DHT22;34352;51.084;3.712;2023-06-05T10:06:52;32.30;1.00
48575;DHT22;34352;51.084;3.712;2023-06-05T10:09:19;33.00;1.00
48575;DHT22;34352;51.084;3.712;2023-06-05T10:11:48;33.00;1.00
48575;DHT22;34352;51.084;3.712;2023-06-05T10:14:15;32.30;1.00
48575;DHT22;34352;51.084;3.712;2023-06-05T10:16:42;32.20;1.00
48575;DHT22;34352;51.084;3.712;2023-06-05T10:19:09;31.90;1.00
48575;DHT22;34352;51.084;3.712;2023-06-05T10:21:34;32.40;1.00
48575;DHT22;34352;51.084;3.712;2023-06-05T10:24:06;32.10;1.00
48575;DHT22;34352;51.084;3.712;2023-06-05T10:29:43;32.40;1.00
48575;DHT22;34352;51.084;3.712;2023-06-05T10:35:24;32.40;1.00
48575;DHT22;34352;51.084;3.712;2023-06-05T10:38:26;31.60;1.00
48575;DHT22;34352;51.084;3.712;2023-06-05T10:41:00;31.60;1.00
48575;DHT22;34352;51.084;3.712;2023-06-05T10:43:47;32.60;1.00
48575;DHT22;34352;51.084;3.712;2023-06-05T10:49:16;33.10;1.00
48575;DHT22;34352;51.084;3.712;2023-06-05T10:51:46;33.60;1.00
48575;DHT22;34352;51.084;3.712;2023-06-05T10:57:03;34.00;1.00
48575;DHT22;34352;51.084;3.712;2023-06-05T10:59:31;33.90;1.00
48575;DHT22;34352;51.084;3.712;2023-06-05T11:10:07;34.20;1.00
48575;DHT22;34352;51.084;3.712;2023-06-05T11:15:16;34.50;1.00
48575;DHT22;34352;51.084;3.712;2023-06-05T11:18:28;34.80;1.00
48575;DHT22;34352;51.084;3.712;2023-06-05T11:20:55;34.60;1.00
48575;DHT22;34352;51.084;3.712;2023-06-05T11:23:21;34.60;1.00
48575;DHT22;34352;51.084;3.712;2023-06-05T11:25:48;34.70;1.00
48575;DHT22;34352;51.084;3.712;2023-06-05T11:28:43;34.80;1.00
48575;DHT22;34352;51.084;3.712;2023-06-05T11:31:09;34.90;1.00
48575;DHT22;34352;51.084;3.712;2023-06-05T11:33:35;34.90;1.00
48575;DHT22;34352;51.084;3.712;2023-06-05T11:36:05;34.60;1.00
48575;DHT22;34352;51.084;3.712;2023-06-05T11:38:33;34.80;1.00
48575;DHT22;34352;51.084;3.712;2023-06-05T11:40:59;35.00;1.00
48575;DHT22;34352;51.084;3.712;2023-06-05T11:43:25;34.70;1.00
48575;DHT22;34352;51.084;3.712;2023-06-05T11:45:55;34.50;1.00
48575;DHT22;34352;51.084;3.712;2023-06-05T11:48:22;34.00;1.00
48575;DHT22;34352;51.084;3.712;2023-06-05T11:50:56;33.40;1.00
48575;DHT22;34352;51.084;3.712;2023-06-05T11:53:22;33.50;1.00
48575;DHT22;34352;51.084;3.712;2023-06-05T11:55:49;33.30;1.00
48575;DHT22;34352;51.084;3.712;2023-06-05T11:58:28;33.70;1.00
48575;DHT22;34352;51.084;3.712;2023-06-05T12:01:08;33.60;1.00
48575;DHT22;34352;51.084;3.712;2023-06-05T12:03:44;34.50;1.00
48575;DHT22;34352;51.084;3.712;2023-06-05T12:06:11;34.70;1.00
48575;DHT22;34352;51.084;3.712;2023-06-05T12:08:40;34.80;1.00
48575;DHT22;34352;51.084;3.712;2023-06-05T12:11:27;34.20;1.00
48575;DHT22;34352;51.084;3.712;2023-06-05T12:13:54;34.60;1.00
48575;DHT22;34352;51.084;3.712;2023-06-05T12:16:41;34.40;1.00
48575;DHT22;34352;51.084;3.712;2023-06-05T12:19:16;35.10;1.00
48575;DHT22;34352;51.084;3.712;2023-06-05T12:21:47;34.70;1.00
48575;DHT22;34352;51.084;3.712;2023-06-05T12:24:14;34.60;1.00
48575;DHT22;34352;51.084;3.712;2023-06-05T12:26:53;34.20;1.00
48575;DHT22;34352;51.084;3.712;2023-06-05T12:29:20;34.00;1.00
48575;DHT22;34352;51.084;3.712;2023-06-05T12:31:48;33.80;1.00
48575;DHT22;34352;51.084;3.712;2023-06-05T12:34:14;34.10;1.00
48575;DHT22;34352;51.084;3.712;2023-06-05T12:36:42;34.60;1.00
48575;DHT22;34352;51.084;3.712;2023-06-05T12:39:12;34.20;1.00
48575;DHT22;34352;51.084;3.712;2023-06-05T12:41:42;34.40;1.00
48575;DHT22;34352;51.084;3.712;2023-06-05T12:44:08;34.50;1.00
48575;DHT22;34352;51.084;3.712;2023-06-05T12:46:35;35.00;1.00
48575;DHT22;34352;51.084;3.712;2023-06-05T12:49:03;34.20;1.00
48575;DHT22;34352;51.084;3.712;2023-06-05T12:51:29;32.40;1.00
48575;DHT22;34352;51.084;3.712;2023-06-05T12:53:56;32.30;1.00
48575;DHT22;34352;51.084;3.712;2023-06-05T12:56:25;33.00;1.00
48575;DHT22;34352;51.084;3.712;2023-06-05T12:58:56;33.90;1.00
48575;DHT22;34352;51.084;3.712;2023-06-05T13:01:23;34.50;1.00
48575;DHT22;34352;51.084;3.712;2023-06-05T13:03:49;33.50;1.00
48575;DHT22;34352;51.084;3.712;2023-06-05T13:06:16;33.20;1.00
48575;DHT22;34352;51.084;3.712;2023-06-05T13:08:42;33.70;1.00
48575;DHT22;34352;51.084;3.712;2023-06-05T13:11:10;33.70;1.00
48575;DHT22;34352;51.084;3.712;2023-06-05T13:13:36;33.90;1.00
48575;DHT22;34352;51.084;3.712;2023-06-05T13:16:03;33.50;1.00
48575;DHT22;34352;51.084;3.712;2023-06-05T13:18:31;33.50;1.00
48575;DHT22;34352;51.084;3.712;2023-06-05T13:20:56;32.60;1.00
48575;DHT22;34352;51.084;3.712;2023-06-05T13:23:25;31.60;1.00
48575;DHT22;34352;51.084;3.712;2023-06-05T13:25:54;31.70;1.00
48575;DHT22;34352;51.084;3.712;2023-06-05T13:28:20;32.30;1.00
48575;DHT22;34352;51.084;3.712;2023-06-05T13:30:47;32.30;1.00
48575;DHT22;34352;51.084;3.712;2023-06-05T13:33:13;32.20;1.00
48575;DHT22;34352;51.084;3.712;2023-06-05T13:35:39;32.10;1.00
48575;DHT22;34352;51.084;3.712;2023-06-05T13:38:08;32.50;1.00
48575;DHT22;34352;51.084;3.712;2023-06-05T13:40:33;32.60;1.00
48575;DHT22;34352;51.084;3.712;2023-06-05T13:43:03;32.30;1.00
48575;DHT22;34352;51.084;3.712;2023-06-05T13:45:28;31.90;1.00
48575;DHT22;34352;51.084;3.712;2023-06-05T13:47:54;31.70;1.00
48575;DHT22;34352;51.084;3.712;2023-06-05T13:50:20;31.70;1.00
48575;DHT22;34352;51.084;3.712;2023-06-05T13:52:46;31.40;1.00
48575;DHT22;34352;51.084;3.712;2023-06-05T13:55:16;31.20;1.00
48575;DHT22;34352;51.084;3.712;2023-06-05T13:57:41;30.90;1.00
48575;DHT22;34352;51.084;3.712;2023-06-05T14:00:07;30.50;1.00
48575;DHT22;34352;51.084;3.712;2023-06-05T14:02:33;30.60;1.00
48575;DHT22;34352;51.084;3.712;2023-06-05T14:04:59;30.50;1.00
48575;DHT22;34352;51.084;3.712;2023-06-05T14:07:25;30.20;1.00
48575;DHT22;34352;51.084;3.712;2023-06-05T14:09:51;29.30;1.00
48575;DHT22;34352;51.084;3.712;2023-06-05T14:12:17;28.70;1.00
48575;DHT22;34352;51.084;3.712;2023-06-05T14:14:43;27.70;1.00
48575;DHT22;34352;51.084;3.712;2023-06-05T14:17:09;27.40;1.00
48575;DHT22;34352;51.084;3.712;2023-06-05T14:19:34;27.50;1.00
48575;DHT22;34352;51.084;3.712;2023-06-05T14:22:01;27.30;1.00
48575;DHT22;34352;51.084;3.712;2023-06-05T14:24:26;27.20;1.00
48575;DHT22;34352;51.084;3.712;2023-06-05T14:26:53;27.10;1.00
48575;DHT22;34352;51.084;3.712;2023-06-05T14:29:20;26.80;1.00
48575;DHT22;34352;51.084;3.712;2023-06-05T14:31:46;26.60;1.00
48575;DHT22;34352;51.084;3.712;2023-06-05T14:34:11;26.60;1.00
48575;DHT22;34352;51.084;3.712;2023-06-05T14:36:37;26.60;1.00
48575;DHT22;34352;51.084;3.712;2023-06-05T14:39:03;26.60;1.00
48575;DHT22;34352;51.084;3.712;2023-06-05T14:41:29;26.70;1.00
48575;DHT22;34352;51.084;3.712;2023-06-05T14:43:58;26.70;1.00
48575;DHT22;34352;51.084;3.712;2023-06-05T14:46:24;26.00;1.00
48575;DHT22;34352;51.084;3.712;2023-06-05T14:48:49;25.90;1.00
48575;DHT22;34352;51.084;3.712;2023-06-05T14:51:16;25.80;1.00
48575;DHT22;34352;51.084;3.712;2023-06-05T14:53:42;25.70;1.00
48575;DHT22;34352;51.084;3.712;2023-06-05T14:56:09;25.60;1.00
48575;DHT22;34352;51.084;3.712;2023-06-05T14:58:34;25.40;1.00
48575;DHT22;34352;51.084;3.712;2023-06-05T15:01:00;25.30;1.00
48575;DHT22;34352;51.084;3.712;2023-06-05T15:03:26;25.20;1.00
48575;DHT22;34352;51.084;3.712;2023-06-05T15:06:27;25.20;1.00
48575;DHT22;34352;51.084;3.712;2023-06-05T15:09:02;25.20;1.00
48575;DHT22;34352;51.084;3.712;2023-06-05T15:11:29;25.20;1.00
48575;DHT22;34352;51.084;3.712;2023-06-05T15:13:54;25.00;1.00
48575;DHT22;34352;51.084;3.712;2023-06-05T15:16:20;24.70;1.00
48575;DHT22;34352;51.084;3.712;2023-06-05T15:18:49;24.60;1.00
48575;DHT22;34352;51.084;3.712;2023-06-05T15:21:15;24.50;1.00
48575;DHT22;34352;51.084;3.712;2023-06-05T15:23:41;24.50;1.00
48575;DHT22;34352;51.084;3.712;2023-06-05T15:26:07;24.30;1.00
48575;DHT22;34352;51.084;3.712;2023-06-05T15:28:32;24.00;1.00
48575;DHT22;34352;51.084;3.712;2023-06-05T15:30:58;23.90;1.00
48575;DHT22;34352;51.084;3.712;2023-06-05T15:33:24;23.90;1.00
48575;DHT22;34352;51.084;3.712;2023-06-05T15:35:50;24.00;1.00
48575;DHT22;34352;51.084;3.712;2023-06-05T15:38:16;23.90;1.00
48575;DHT22;34352;51.084;3.712;2023-06-05T15:40:42;23.90;1.00
48575;DHT22;34352;51.084;3.712;2023-06-05T15:43:09;23.90;1.00
48575;DHT22;34352;51.084;3.712;2023-06-05T15:45:37;23.70;1.00
48575;DHT22;34352;51.084;3.712;2023-06-05T15:48:04;23.70;1.00
48575;DHT22;34352;51.084;3.712;2023-06-05T15:50:29;23.60;1.00
48575;DHT22;34352;51.084;3.712;2023-06-05T15:52:55;23.70;1.00
48575;DHT22;34352;51.084;3.712;2023-06-05T15:55:21;23.70;1.00
48575;DHT22;34352;51.084;3.712;2023-06-05T15:57:47;23.40;1.00
48575;DHT22;34352;51.084;3.712;2023-06-05T16:03:00;22.50;1.00
48575;DHT22;34352;51.084;3.712;2023-06-05T16:05:26;22.50;1.00
48575;DHT22;34352;51.084;3.712;2023-06-05T16:07:53;22.60;1.00
48575;DHT22;34352;51.084;3.712;2023-06-05T16:13:54;22.70;1.00
48575;DHT22;34352;51.084;3.712;2023-06-05T16:24:33;22.40;1.00
48575;DHT22;34352;51.084;3.712;2023-06-05T18:58:28;17.70;1.00
48575;DHT22;34352;51.084;3.712;2023-06-05T19:17:13;16.80;1.00
48575;DHT22;34352;51.084;3.712;2023-06-05T20:17:18;15.40;1.00
48575;DHT22;34352;51.084;3.712;2023-06-05T22:03:16;13.90;1.00
